createdAt,value
2024-02-21T00:00:19.923Z,26.27
2024-02-21T00:02:50.086Z,21.98
2024-02-21T00:05:22.566Z,29.45
2024-02-21T00:07:50.730Z,26.27
2024-02-21T00:10:19.551Z,19.20
2024-02-21T00:12:48.658Z,32.33
2024-02-21T00:15:17.652Z,25.65
2024-02-21T00:17:47.282Z,23.65
2024-02-21T00:20:19.530Z,29.37
2024-02-21T00:22:48.786Z,23.70
2024-02-21T00:25:22.684Z,26.90
2024-02-21T00:27:53.396Z,19.58
2024-02-21T00:30:23.284Z,28.75
2024-02-21T00:33:07.931Z,27.33
2024-02-21T00:35:44.293Z,24.55
2024-02-21T00:38:17.904Z,23.88
2024-02-21T00:40:50.787Z,20.85
2024-02-21T00:43:19.660Z,25.27
2024-02-21T00:45:47.849Z,30.27
2024-02-21T00:48:16.624Z,18.95
2024-02-21T00:50:47.673Z,25.58
2024-02-21T00:53:16.728Z,25.40
2024-02-21T00:55:45.786Z,26.15
2024-02-21T00:58:16.625Z,21.77
2024-02-21T01:00:46.493Z,26.70
2024-02-21T01:03:17.573Z,21.92
2024-02-21T01:05:47.482Z,27.73
2024-02-21T01:08:16.123Z,27.40
2024-02-21T01:10:48.700Z,19.93
2024-02-21T01:13:19.493Z,19.90
2024-02-21T01:15:48.543Z,25.45
2024-02-21T01:18:17.413Z,27.50
2024-02-21T01:20:46.232Z,22.52
2024-02-21T01:23:17.691Z,19.67
2024-02-21T01:25:45.960Z,24.80
2024-02-21T01:28:16.176Z,19.13
2024-02-21T01:30:46.483Z,29.10
2024-02-21T01:33:14.863Z,22.88
2024-02-21T01:35:43.610Z,20.70
2024-02-21T01:38:12.449Z,24.60
2024-02-21T01:40:43.763Z,24.48
2024-02-21T01:43:18.904Z,30.40
2024-02-21T01:45:49.962Z,19.08
2024-02-21T01:48:21.206Z,26.27
2024-02-21T01:50:54.010Z,24.58
2024-02-21T01:53:26.519Z,16.35
2024-02-21T01:55:56.963Z,14.00
2024-02-21T01:58:29.701Z,26.30
2024-02-21T02:00:59.529Z,24.23
2024-02-21T02:03:28.429Z,26.10
2024-02-21T02:05:57.095Z,31.65
2024-02-21T02:08:25.921Z,23.30
2024-02-21T02:11:04.564Z,20.20
2024-02-21T02:13:37.575Z,21.30
2024-02-21T02:16:07.761Z,18.42
2024-02-21T02:18:36.893Z,21.92
2024-02-21T02:21:07.728Z,21.23
2024-02-21T02:23:38.526Z,23.17
2024-02-21T02:26:09.764Z,19.00
2024-02-21T02:28:38.812Z,21.73
2024-02-21T02:31:08.680Z,24.77
2024-02-21T02:33:37.521Z,22.75
2024-02-21T02:36:07.589Z,23.08
2024-02-21T02:38:40.959Z,19.23
2024-02-21T02:41:12.656Z,26.38
2024-02-21T02:43:41.447Z,16.67
2024-02-21T02:46:11.286Z,27.23
2024-02-21T02:48:42.118Z,22.50
2024-02-21T02:51:23.189Z,30.40
2024-02-21T02:53:55.392Z,20.00
2024-02-21T02:56:23.700Z,23.08
2024-02-21T02:58:52.029Z,20.40
2024-02-21T03:01:22.293Z,17.25
2024-02-21T03:03:50.585Z,26.97
2024-02-21T03:06:19.037Z,17.58
2024-02-21T03:08:48.134Z,20.95
2024-02-21T03:11:20.124Z,23.90
2024-02-21T03:13:48.487Z,21.58
2024-02-21T03:16:19.621Z,25.70
2024-02-21T03:18:47.971Z,22.58
2024-02-21T03:21:16.585Z,19.58
2024-02-21T03:23:44.698Z,28.35
2024-02-21T03:26:13.145Z,26.90
2024-02-21T03:28:45.781Z,28.90
2024-02-21T03:31:15.848Z,24.17
2024-02-21T03:33:45.305Z,20.15
2024-02-21T03:36:15.991Z,23.98
2024-02-21T03:38:46.414Z,24.50
2024-02-21T03:41:16.988Z,30.67
2024-02-21T03:43:47.095Z,18.65
2024-02-21T03:46:15.482Z,21.65
2024-02-21T03:48:45.656Z,23.75
2024-02-21T03:51:18.974Z,29.08
2024-02-21T03:53:51.131Z,24.23
2024-02-21T03:56:19.688Z,18.75
2024-02-21T03:58:51.150Z,20.13
2024-02-21T04:01:19.530Z,17.67
2024-02-21T04:03:47.679Z,22.17
2024-02-21T04:06:17.241Z,19.67
2024-02-21T04:08:45.483Z,24.13
2024-02-21T04:11:14.029Z,21.65
2024-02-21T04:13:42.340Z,26.17
2024-02-21T04:16:11.932Z,26.92
2024-02-21T04:18:41.994Z,29.97
2024-02-21T04:21:18.573Z,27.10
2024-02-21T04:23:49.793Z,21.77
2024-02-21T04:26:18.590Z,25.35
2024-02-21T04:28:48.688Z,26.98
2024-02-21T04:31:18.993Z,32.27
2024-02-21T04:33:47.351Z,30.63
2024-02-21T04:36:16.037Z,22.13
2024-02-21T04:38:44.442Z,29.23
2024-02-21T04:41:12.934Z,30.08
2024-02-21T04:43:41.198Z,23.47
2024-02-21T04:46:09.706Z,31.30
2024-02-21T04:48:39.712Z,38.42
2024-02-21T04:51:08.140Z,28.00
2024-02-21T04:53:36.333Z,30.17
2024-02-21T04:56:05.771Z,28.93
2024-02-21T04:58:37.419Z,37.35
2024-02-21T05:01:07.458Z,32.35
2024-02-21T05:03:35.935Z,43.92
2024-02-21T05:06:06.073Z,33.97
2024-02-21T05:08:35.034Z,44.73
2024-02-21T05:11:03.999Z,34.05
2024-02-21T05:13:32.072Z,34.67
2024-02-21T05:16:02.652Z,29.77
2024-02-21T05:18:32.545Z,26.90
2024-02-21T05:21:01.156Z,33.23
2024-02-21T05:23:30.677Z,28.45
2024-02-21T05:25:58.992Z,23.63
2024-02-21T05:28:27.486Z,30.05
2024-02-21T05:30:55.778Z,19.85
2024-02-21T05:33:23.947Z,33.90
2024-02-21T05:35:53.403Z,31.35
2024-02-21T05:38:22.028Z,27.83
2024-02-21T05:40:52.080Z,28.00
2024-02-21T05:43:21.605Z,30.63
2024-02-21T05:45:51.632Z,25.67
2024-02-21T05:48:21.189Z,23.95
2024-02-21T05:50:50.699Z,26.38
2024-02-21T05:53:19.803Z,23.27
2024-02-21T05:55:48.955Z,22.73
2024-02-21T05:58:19.724Z,28.10
2024-02-21T06:00:48.554Z,30.40
2024-02-21T06:03:17.494Z,22.23
2024-02-21T06:05:46.090Z,18.67
2024-02-21T06:08:14.483Z,22.65
2024-02-21T06:10:43.105Z,24.67
2024-02-21T06:13:11.862Z,25.05
2024-02-21T06:15:41.529Z,18.98
2024-02-21T06:18:10.405Z,22.52
2024-02-21T06:20:41.510Z,21.77
2024-02-21T06:23:10.971Z,23.73
2024-02-21T06:25:40.050Z,24.75
2024-02-21T06:28:08.805Z,23.35
2024-02-21T06:30:38.716Z,21.60
2024-02-21T06:33:09.877Z,28.02
2024-02-21T06:35:39.827Z,27.80
2024-02-21T06:38:09.434Z,25.50
2024-02-21T06:40:41.787Z,26.95
2024-02-21T06:43:12.700Z,19.20
2024-02-21T06:45:43.104Z,17.95
2024-02-21T06:48:13.058Z,25.47
2024-02-21T06:50:41.532Z,17.88
2024-02-21T06:53:12.781Z,20.23
2024-02-21T06:55:41.286Z,18.45
2024-02-21T06:58:14.331Z,21.27
2024-02-21T07:00:47.258Z,19.53
2024-02-21T07:03:18.038Z,23.67
2024-02-21T07:05:46.618Z,22.05
2024-02-21T07:08:16.497Z,19.25
2024-02-21T07:10:45.200Z,20.27
2024-02-21T07:13:17.695Z,21.33
2024-02-21T07:15:48.811Z,21.83
2024-02-21T07:18:18.761Z,21.77
2024-02-21T07:20:47.788Z,19.80
2024-02-21T07:23:18.006Z,18.77
2024-02-21T07:25:49.877Z,23.30
2024-02-21T07:28:21.511Z,22.58
2024-02-21T07:30:55.472Z,19.75
2024-02-21T07:33:27.138Z,22.10
2024-02-21T07:35:57.401Z,23.25
2024-02-21T07:38:28.380Z,18.10
2024-02-21T07:40:58.627Z,17.25
2024-02-21T07:43:28.332Z,22.65
2024-02-21T07:50:20.838Z,19.40
2024-02-21T07:53:22.357Z,16.97
2024-02-21T07:56:08.165Z,19.50
2024-02-21T08:03:44.365Z,16.42
2024-02-21T08:09:56.177Z,15.17
2024-02-21T08:12:24.635Z,19.23
2024-02-21T08:21:52.138Z,20.80
2024-02-21T08:24:20.620Z,22.03
2024-02-21T08:26:51.963Z,19.75
2024-02-21T08:29:21.393Z,18.33
2024-02-21T08:31:51.441Z,18.42
2024-02-21T08:34:21.106Z,20.20
2024-02-21T08:36:49.463Z,18.10
2024-02-21T08:39:19.202Z,19.92
2024-02-21T08:41:52.980Z,17.38
2024-02-21T08:44:28.649Z,14.68
2024-02-21T08:46:58.347Z,15.57
2024-02-21T08:52:01.622Z,15.85
2024-02-21T08:54:31.019Z,19.17
2024-02-21T08:57:03.130Z,19.92
2024-02-21T08:59:33.552Z,17.88
2024-02-21T09:02:01.998Z,16.60
2024-02-21T09:04:30.568Z,18.30
2024-02-21T09:06:59.011Z,17.60
2024-02-21T09:09:29.994Z,19.02
2024-02-21T09:11:59.266Z,15.82
2024-02-21T09:14:27.543Z,16.57
2024-02-21T09:16:57.518Z,20.42
2024-02-21T09:19:26.356Z,20.65
2024-02-21T09:21:54.297Z,20.88
2024-02-21T09:24:22.562Z,20.92
2024-02-21T09:26:51.932Z,24.37
2024-02-21T09:29:21.465Z,24.00
2024-02-21T09:31:51.934Z,21.65
2024-02-21T09:34:23.668Z,23.83
2024-02-21T09:36:56.491Z,25.70
2024-02-21T09:39:25.811Z,23.73
2024-02-21T09:41:57.649Z,26.08
2024-02-21T09:44:27.121Z,22.60
2024-02-21T09:47:01.494Z,22.00
2024-02-21T09:49:34.474Z,20.80
2024-02-21T09:52:04.602Z,25.03
2024-02-21T09:54:35.943Z,27.15
2024-02-21T09:57:06.259Z,23.63
2024-02-21T09:59:35.367Z,23.42
2024-02-21T10:02:04.457Z,27.27
2024-02-21T10:04:34.772Z,23.87
2024-02-21T10:07:03.445Z,26.77
2024-02-21T10:09:32.270Z,27.27
2024-02-21T10:12:10.266Z,26.88
2024-02-21T10:14:42.151Z,27.23
2024-02-21T10:17:12.820Z,23.67
2024-02-21T10:19:42.860Z,23.27
2024-02-21T10:22:11.755Z,24.27
2024-02-21T10:24:44.629Z,24.92
2024-02-21T10:27:13.892Z,24.90
2024-02-21T10:29:42.975Z,25.23
2024-02-21T10:32:14.547Z,21.80
2024-02-21T10:34:54.157Z,24.02
2024-02-21T10:37:33.577Z,22.33
2024-02-21T10:40:07.284Z,25.90
2024-02-21T10:42:46.696Z,23.27
2024-02-21T10:45:25.364Z,22.60
2024-02-21T10:48:05.582Z,28.70
2024-02-21T10:50:48.359Z,23.00
2024-02-21T10:53:31.942Z,21.02
2024-02-21T10:56:13.241Z,20.77
2024-02-21T10:58:53.464Z,22.70
2024-02-21T11:01:31.501Z,23.45
2024-02-21T11:04:03.229Z,24.00
2024-02-21T11:06:44.865Z,21.08
2024-02-21T11:09:29.377Z,22.17
2024-02-21T11:12:03.705Z,23.95
2024-02-21T11:14:43.361Z,19.50
2024-02-21T11:17:26.643Z,20.23
2024-02-21T11:19:55.076Z,21.08
2024-02-21T11:22:31.213Z,22.83
2024-02-21T11:25:11.421Z,21.90
2024-02-21T11:27:40.949Z,18.23
2024-02-21T11:30:11.623Z,18.08
2024-02-21T11:32:40.962Z,17.58
2024-02-21T11:35:10.787Z,17.83
2024-02-21T11:37:41.529Z,19.00
2024-02-21T11:40:16.533Z,20.88
2024-02-21T11:42:47.228Z,18.50
2024-02-21T11:45:21.363Z,21.10
2024-02-21T11:47:50.432Z,20.90
2024-02-21T11:50:21.888Z,18.98
2024-02-21T11:52:57.185Z,19.60
2024-02-21T11:55:26.347Z,22.38
2024-02-21T11:57:54.544Z,20.35
2024-02-21T12:00:25.946Z,16.73
2024-02-21T12:02:58.658Z,21.13
2024-02-21T12:05:30.486Z,17.52
2024-02-21T12:08:03.765Z,17.50
2024-02-21T12:10:35.388Z,17.42
2024-02-21T12:13:11.494Z,17.07
2024-02-21T12:15:41.694Z,18.92
2024-02-21T12:18:10.399Z,17.77
2024-02-21T12:20:44.561Z,16.30
2024-02-21T12:23:16.604Z,17.33
2024-02-21T12:25:45.530Z,19.23
2024-02-21T12:28:13.766Z,15.50
2024-02-21T12:30:45.867Z,16.77
2024-02-21T12:33:21.076Z,16.83
2024-02-21T12:35:52.478Z,15.32
2024-02-21T12:38:25.618Z,15.30
2024-02-21T12:40:57.350Z,16.13
2024-02-21T12:43:29.109Z,14.98
2024-02-21T12:45:58.850Z,15.73
2024-02-21T12:48:28.214Z,16.85
2024-02-21T12:51:01.760Z,15.50
2024-02-21T12:53:34.204Z,18.63
2024-02-21T12:56:07.029Z,16.70
2024-02-21T12:58:37.828Z,13.80
2024-02-21T13:01:10.008Z,16.70
2024-02-21T13:03:39.163Z,16.23
2024-02-21T13:06:09.538Z,15.98
2024-02-21T13:08:40.535Z,16.50
2024-02-21T13:11:12.134Z,14.23
2024-02-21T13:13:40.690Z,15.15
2024-02-21T13:16:09.468Z,15.87
2024-02-21T13:18:40.345Z,13.40
2024-02-21T13:21:12.098Z,13.38
2024-02-21T13:23:42.612Z,13.95
2024-02-21T13:26:11.448Z,16.55
2024-02-21T13:28:39.502Z,13.07
2024-02-21T13:31:08.634Z,14.45
2024-02-21T13:33:37.892Z,12.95
2024-02-21T13:37:01.472Z,14.05
2024-02-21T13:40:28.022Z,13.60
2024-02-21T13:43:38.637Z,12.30
2024-02-21T13:49:57.166Z,11.50
2024-02-21T13:52:30.311Z,11.77
2024-02-21T13:55:00.326Z,11.50
2024-02-21T13:57:27.286Z,10.10
2024-02-21T13:59:55.547Z,12.73
2024-02-21T14:02:23.828Z,13.48
2024-02-21T14:04:55.162Z,15.25
2024-02-21T14:07:24.139Z,11.95
2024-02-21T14:09:52.323Z,15.40
2024-02-21T14:12:23.272Z,11.57
2024-02-21T14:14:53.166Z,16.33
2024-02-21T14:17:21.891Z,12.75
2024-02-21T14:19:49.988Z,14.90
2024-02-21T14:22:18.568Z,14.20
2024-02-21T14:24:47.832Z,19.08
2024-02-21T14:27:18.620Z,17.73
2024-02-21T14:29:48.424Z,18.80
2024-02-21T14:32:16.896Z,17.80
2024-02-21T14:34:48.662Z,19.97
2024-02-21T14:37:16.991Z,15.35
2024-02-21T14:39:48.079Z,17.80
2024-02-21T14:42:16.896Z,15.57
2024-02-21T14:44:45.149Z,18.45
2024-02-21T14:47:16.680Z,16.10
2024-02-21T14:49:45.781Z,19.73
2024-02-21T14:52:14.177Z,18.05
2024-02-21T14:54:47.328Z,21.98
2024-02-21T14:57:16.889Z,16.88
2024-02-21T14:59:45.744Z,19.47
2024-02-21T15:02:15.414Z,15.40
2024-02-21T15:04:44.529Z,17.30
2024-02-21T15:07:14.343Z,17.83
2024-02-21T15:09:42.698Z,15.77
2024-02-21T15:12:11.077Z,15.27
2024-02-21T15:14:40.771Z,13.45
2024-02-21T15:17:10.386Z,14.82
2024-02-21T15:19:46.395Z,13.20
2024-02-21T15:22:17.153Z,16.50
2024-02-21T15:24:50.214Z,13.27
2024-02-21T15:27:27.434Z,12.32
2024-02-21T15:29:55.766Z,11.02
2024-02-21T15:32:24.420Z,11.02
2024-02-21T15:39:39.691Z,12.13
2024-02-21T15:42:08.771Z,15.05
2024-02-21T15:44:37.471Z,16.92
2024-02-21T15:47:10.849Z,12.50
2024-02-21T15:49:39.949Z,13.15
2024-02-21T15:52:08.967Z,12.30
2024-02-21T15:54:41.664Z,11.68
2024-02-21T15:57:13.387Z,18.13
2024-02-21T15:59:44.780Z,13.45
2024-02-21T16:02:13.326Z,15.38
2024-02-21T16:04:49.843Z,12.70
2024-02-21T16:07:24.343Z,15.63
2024-02-21T16:09:54.911Z,13.15
2024-02-21T16:12:26.321Z,14.63
2024-02-21T16:14:56.100Z,13.82
2024-02-21T16:17:25.398Z,15.57
2024-02-21T16:19:54.346Z,12.27
2024-02-21T16:22:22.707Z,13.10
2024-02-21T16:24:55.571Z,15.38
2024-02-21T16:27:29.539Z,12.07
2024-02-21T16:29:58.709Z,11.93
2024-02-21T16:32:32.122Z,13.65
2024-02-21T16:35:03.953Z,11.18
2024-02-21T16:37:34.839Z,18.27
2024-02-21T16:40:05.883Z,11.60
2024-02-21T16:42:36.642Z,14.20
2024-02-21T16:45:11.638Z,12.27
2024-02-21T16:47:40.891Z,12.43
2024-02-21T16:50:13.819Z,14.15
2024-02-21T16:52:44.343Z,12.18
2024-02-21T16:55:16.978Z,12.60
2024-02-21T16:57:47.568Z,13.90
2024-02-21T17:00:16.959Z,12.35
2024-02-21T17:02:55.506Z,12.63
2024-02-21T17:05:29.064Z,11.40
2024-02-21T17:07:57.248Z,14.40
2024-02-21T17:10:32.627Z,13.68
2024-02-21T17:13:03.661Z,14.10
2024-02-21T17:15:32.305Z,15.07
2024-02-21T17:18:02.459Z,14.63
2024-02-21T17:20:34.609Z,15.17
2024-02-21T17:23:05.435Z,15.02
2024-02-21T17:25:34.023Z,14.80
2024-02-21T17:28:07.236Z,14.43
2024-02-21T17:30:37.705Z,14.88
2024-02-21T17:33:08.525Z,16.93
2024-02-21T17:35:37.216Z,18.20
2024-02-21T17:38:07.051Z,15.80
2024-02-21T17:40:35.702Z,13.48
2024-02-21T17:43:05.715Z,14.95
2024-02-21T17:45:34.612Z,15.90
2024-02-21T17:48:02.854Z,15.60
2024-02-21T17:50:32.467Z,15.68
2024-02-21T17:53:02.871Z,17.35
2024-02-21T17:58:38.573Z,17.70
2024-02-21T18:02:15.107Z,14.35
2024-02-21T18:05:31.402Z,12.82
2024-02-21T18:08:54.403Z,16.30
2024-02-21T18:16:43.879Z,14.07
2024-02-21T18:28:41.829Z,14.65
2024-02-21T18:35:52.805Z,17.53
2024-02-21T18:38:21.354Z,15.25
2024-02-21T18:40:50.170Z,14.27
2024-02-21T18:43:20.278Z,13.95
2024-02-21T18:45:54.095Z,14.68
2024-02-21T18:48:25.817Z,15.33
2024-02-21T18:50:54.219Z,13.82
2024-02-21T18:53:22.861Z,14.60
2024-02-21T18:55:59.921Z,14.90
2024-02-21T18:58:30.387Z,16.50
2024-02-21T19:00:58.599Z,14.60
2024-02-21T19:03:27.266Z,13.70
2024-02-21T19:05:58.524Z,11.65
2024-02-21T19:08:27.249Z,12.40
2024-02-21T19:10:55.533Z,12.25
2024-02-21T19:13:27.657Z,12.80
2024-02-21T19:16:00.796Z,12.65
2024-02-21T19:18:29.303Z,15.27
2024-02-21T19:20:57.915Z,12.77
2024-02-21T19:23:26.946Z,14.57
2024-02-21T19:25:58.421Z,12.07
2024-02-21T19:28:27.218Z,13.85
2024-02-21T19:30:55.970Z,15.15
2024-02-21T19:33:29.160Z,13.00
2024-02-21T19:36:01.462Z,12.05
2024-02-21T19:38:30.141Z,13.03
2024-02-21T19:40:58.745Z,14.88
2024-02-21T19:43:31.724Z,14.05
2024-02-21T19:46:01.496Z,16.23
2024-02-21T19:48:31.182Z,15.05
2024-02-21T19:50:59.632Z,12.83
2024-02-21T19:53:31.298Z,13.25
2024-02-21T19:56:01.067Z,12.90
2024-02-21T19:58:30.626Z,12.70
2024-02-21T20:01:06.460Z,12.48
2024-02-21T20:03:39.891Z,13.13
2024-02-21T20:19:20.590Z,13.00
2024-02-21T20:21:55.579Z,11.40
2024-02-21T20:24:36.026Z,13.13
2024-02-21T20:27:13.791Z,11.70
2024-02-21T20:29:49.065Z,12.02
2024-02-21T20:32:26.326Z,13.93
2024-02-21T20:34:59.266Z,11.03
2024-02-21T20:37:33.074Z,10.05
2024-02-21T20:40:11.383Z,8.88
2024-02-21T20:43:01.384Z,8.80
2024-02-21T20:53:16.257Z,8.55
2024-02-21T21:05:26.338Z,8.90
2024-02-21T21:08:27.217Z,8.27
2024-02-21T21:10:56.173Z,8.65
2024-02-21T21:13:30.998Z,10.40
2024-02-21T21:16:04.130Z,8.93
2024-02-21T21:18:33.496Z,13.45
2024-02-21T21:21:02.612Z,10.47
2024-02-21T21:23:33.354Z,10.05
2024-02-21T21:26:02.713Z,9.38
2024-02-21T21:28:30.535Z,11.30
2024-02-21T21:31:18.830Z,10.95
2024-02-21T21:33:51.706Z,12.40
2024-02-21T21:36:21.540Z,11.48
2024-02-21T21:38:51.232Z,8.93
2024-02-21T21:41:22.662Z,10.15
2024-02-21T21:43:51.663Z,11.23
2024-02-21T21:46:20.080Z,13.67
2024-02-21T21:48:48.245Z,13.35
2024-02-21T21:51:16.512Z,10.07
2024-02-21T21:53:47.094Z,11.93
2024-02-21T21:56:16.649Z,10.23
2024-02-21T21:58:47.063Z,10.10
2024-02-21T22:01:15.855Z,10.32
2024-02-21T22:03:44.643Z,11.75
2024-02-21T22:06:15.082Z,7.63
2024-02-21T22:08:46.305Z,8.95
2024-02-21T22:11:18.317Z,9.07
2024-02-21T22:13:48.389Z,9.15
2024-02-21T22:16:16.929Z,8.07
2024-02-21T22:18:46.165Z,10.57
2024-02-21T22:21:14.709Z,7.05
2024-02-21T22:23:46.091Z,9.53
2024-02-21T22:26:16.915Z,10.40
2024-02-21T22:28:48.635Z,7.35
2024-02-21T22:31:17.392Z,6.15
2024-02-21T22:33:46.946Z,7.68
2024-02-21T22:36:20.969Z,7.13
2024-02-21T22:38:51.008Z,5.80
2024-02-21T22:41:21.046Z,5.35
2024-02-21T22:43:51.158Z,5.60
2024-02-21T22:46:20.118Z,6.40
2024-02-21T22:48:48.436Z,7.90
2024-02-21T22:51:19.774Z,10.00
2024-02-21T22:53:48.191Z,7.40
2024-02-21T22:56:16.693Z,7.85
2024-02-21T22:58:45.366Z,12.63
2024-02-21T23:01:21.326Z,8.93
2024-02-21T23:03:53.018Z,19.30
2024-02-21T23:06:22.426Z,16.67
2024-02-21T23:08:51.387Z,14.43
2024-02-21T23:11:19.818Z,13.13
2024-02-21T23:13:52.814Z,21.47
2024-02-21T23:16:23.029Z,14.82
2024-02-21T23:18:52.622Z,13.35
2024-02-21T23:21:21.392Z,17.35
2024-02-21T23:23:49.869Z,16.38
2024-02-21T23:26:18.716Z,16.37
2024-02-21T23:28:46.813Z,15.90
2024-02-21T23:31:15.878Z,17.13
2024-02-21T23:33:45.825Z,15.40
2024-02-21T23:36:17.224Z,15.07
2024-02-21T23:38:45.318Z,19.93
2024-02-21T23:41:17.391Z,18.10
2024-02-21T23:43:46.270Z,13.15
2024-02-21T23:46:20.197Z,14.65
2024-02-21T23:48:49.759Z,13.65
2024-02-21T23:51:18.310Z,10.03
2024-02-21T23:53:47.057Z,20.50
2024-02-21T23:56:16.383Z,17.58
2024-02-21T23:58:44.356Z,15.02
